sensor_id;sensor_type;location;lat;lon;timestamp;P1;durP1;ratioP1;P2;durP2;ratioP2
66523;SDS011;53350;52.210;5.160;2023-04-03T00:02:19;4.88;;;1.10;;
66523;SDS011;53350;52.210;5.160;2023-04-03T00:04:47;4.40;;;1.20;;
66523;SDS011;53350;52.210;5.160;2023-04-03T00:07:13;3.22;;;1.10;;
66523;SDS011;53350;52.210;5.160;2023-04-03T00:09:40;4.63;;;1.13;;
66523;SDS011;53350;52.210;5.160;2023-04-03T00:12:06;4.20;;;1.20;;
66523;SDS011;53350;52.210;5.160;2023-04-03T00:14:33;4.45;;;1.13;;
66523;SDS011;53350;52.210;5.160;2023-04-03T00:16:59;4.90;;;1.30;;
66523;SDS011;53350;52.210;5.160;2023-04-03T00:19:26;2.83;;;1.10;;
66523;SDS011;53350;52.210;5.160;2023-04-03T00:21:53;4.40;;;1.58;;
66523;SDS011;53350;52.210;5.160;2023-04-03T00:24:20;3.92;;;1.27;;
66523;SDS011;53350;52.210;5.160;2023-04-03T00:26:47;3.28;;;1.05;;
66523;SDS011;53350;52.210;5.160;2023-04-03T00:29:13;2.83;;;1.10;;
66523;SDS011;53350;52.210;5.160;2023-04-03T00:31:40;2.22;;;1.10;;
66523;SDS011;53350;52.210;5.160;2023-04-03T00:34:06;4.15;;;1.00;;
66523;SDS011;53350;52.210;5.160;2023-04-03T00:36:32;6.35;;;1.83;;
66523;SDS011;53350;52.210;5.160;2023-04-03T00:39:00;4.95;;;1.40;;
66523;SDS011;53350;52.210;5.160;2023-04-03T00:41:27;3.05;;;0.93;;
66523;SDS011;53350;52.210;5.160;2023-04-03T00:43:53;3.33;;;1.02;;
66523;SDS011;53350;52.210;5.160;2023-04-03T00:46:19;4.30;;;1.45;;
66523;SDS011;53350;52.210;5.160;2023-04-03T00:48:47;4.55;;;1.27;;
66523;SDS011;53350;52.210;5.160;2023-04-03T00:51:15;5.15;;;1.20;;
66523;SDS011;53350;52.210;5.160;2023-04-03T00:53:46;1.30;;;0.68;;
66523;SDS011;53350;52.210;5.160;2023-04-03T00:56:16;6.28;;;1.27;;
66523;SDS011;53350;52.210;5.160;2023-04-03T00:58:47;3.03;;;1.15;;
66523;SDS011;53350;52.210;5.160;2023-04-03T01:01:18;2.30;;;1.00;;
66523;SDS011;53350;52.210;5.160;2023-04-03T01:03:48;6.05;;;1.17;;
66523;SDS011;53350;52.210;5.160;2023-04-03T01:06:15;5.45;;;1.27;;
66523;SDS011;53350;52.210;5.160;2023-04-03T01:08:46;5.20;;;1.55;;
66523;SDS011;53350;52.210;5.160;2023-04-03T01:13:42;2.85;;;0.90;;
66523;SDS011;53350;52.210;5.160;2023-04-03T01:16:08;7.72;;;1.48;;
66523;SDS011;53350;52.210;5.160;2023-04-03T01:18:36;2.28;;;0.98;;
66523;SDS011;53350;52.210;5.160;2023-04-03T01:24:12;3.58;;;1.33;;
66523;SDS011;53350;52.210;5.160;2023-04-03T01:26:53;5.40;;;1.30;;
66523;SDS011;53350;52.210;5.160;2023-04-03T01:29:21;3.72;;;1.20;;
66523;SDS011;53350;52.210;5.160;2023-04-03T01:31:50;6.47;;;1.42;;
66523;SDS011;53350;52.210;5.160;2023-04-03T01:34:18;4.65;;;1.40;;
66523;SDS011;53350;52.210;5.160;2023-04-03T01:36:45;5.22;;;1.25;;
66523;SDS011;53350;52.210;5.160;2023-04-03T01:39:12;2.28;;;1.08;;
66523;SDS011;53350;52.210;5.160;2023-04-03T01:41:38;4.90;;;0.73;;
66523;SDS011;53350;52.210;5.160;2023-04-03T01:44:05;3.50;;;1.10;;
66523;SDS011;53350;52.210;5.160;2023-04-03T01:46:31;5.20;;;1.35;;
66523;SDS011;53350;52.210;5.160;2023-04-03T01:48:59;3.55;;;1.05;;
66523;SDS011;53350;52.210;5.160;2023-04-03T01:51:26;6.40;;;1.70;;
66523;SDS011;53350;52.210;5.160;2023-04-03T01:53:52;4.35;;;1.30;;
66523;SDS011;53350;52.210;5.160;2023-04-03T01:56:19;4.53;;;1.50;;
66523;SDS011;53350;52.210;5.160;2023-04-03T01:58:46;5.88;;;1.40;;
66523;SDS011;53350;52.210;5.160;2023-04-03T02:01:12;5.10;;;1.30;;
66523;SDS011;53350;52.210;5.160;2023-04-03T02:03:38;4.57;;;1.27;;
66523;SDS011;53350;52.210;5.160;2023-04-03T02:06:06;5.20;;;1.27;;
66523;SDS011;53350;52.210;5.160;2023-04-03T02:08:33;5.07;;;1.30;;
66523;SDS011;53350;52.210;5.160;2023-04-03T02:10:59;3.58;;;0.93;;
66523;SDS011;53350;52.210;5.160;2023-04-03T02:13:26;6.60;;;1.10;;
66523;SDS011;53350;52.210;5.160;2023-04-03T02:15:52;4.18;;;1.35;;
66523;SDS011;53350;52.210;5.160;2023-04-03T02:18:19;3.03;;;0.93;;
66523;SDS011;53350;52.210;5.160;2023-04-03T02:20:46;8.02;;;1.95;;
66523;SDS011;53350;52.210;5.160;2023-04-03T02:23:14;3.53;;;1.33;;
66523;SDS011;53350;52.210;5.160;2023-04-03T02:25:40;8.45;;;1.30;;
66523;SDS011;53350;52.210;5.160;2023-04-03T02:28:07;4.88;;;1.33;;
66523;SDS011;53350;52.210;5.160;2023-04-03T02:30:33;14.20;;;1.88;;
66523;SDS011;53350;52.210;5.160;2023-04-03T02:33:00;6.35;;;1.23;;
66523;SDS011;53350;52.210;5.160;2023-04-03T02:35:26;3.78;;;1.13;;
66523;SDS011;53350;52.210;5.160;2023-04-03T02:37:53;5.57;;;1.58;;
66523;SDS011;53350;52.210;5.160;2023-04-03T02:40:21;4.00;;;1.40;;
66523;SDS011;53350;52.210;5.160;2023-04-03T02:42:47;5.38;;;1.63;;
66523;SDS011;53350;52.210;5.160;2023-04-03T02:45:13;4.05;;;1.40;;
66523;SDS011;53350;52.210;5.160;2023-04-03T02:47:40;4.40;;;1.40;;
66523;SDS011;53350;52.210;5.160;2023-04-03T02:50:06;6.18;;;1.83;;
66523;SDS011;53350;52.210;5.160;2023-04-03T02:52:33;3.40;;;1.10;;
66523;SDS011;53350;52.210;5.160;2023-04-03T02:55:00;3.90;;;1.17;;
66523;SDS011;53350;52.210;5.160;2023-04-03T02:57:28;3.25;;;1.02;;
66523;SDS011;53350;52.210;5.160;2023-04-03T02:59:54;5.55;;;1.52;;
66523;SDS011;53350;52.210;5.160;2023-04-03T03:02:20;4.80;;;1.55;;
66523;SDS011;53350;52.210;5.160;2023-04-03T03:04:47;8.45;;;1.65;;
66523;SDS011;53350;52.210;5.160;2023-04-03T03:07:13;6.10;;;1.83;;
66523;SDS011;53350;52.210;5.160;2023-04-03T03:09:40;7.10;;;1.63;;
66523;SDS011;53350;52.210;5.160;2023-04-03T03:12:06;4.28;;;1.30;;
66523;SDS011;53350;52.210;5.160;2023-04-03T03:14:34;7.10;;;1.60;;
66523;SDS011;53350;52.210;5.160;2023-04-03T03:17:00;6.45;;;1.60;;
66523;SDS011;53350;52.210;5.160;2023-04-03T03:19:27;7.40;;;1.58;;
66523;SDS011;53350;52.210;5.160;2023-04-03T03:21:53;5.63;;;1.40;;
66523;SDS011;53350;52.210;5.160;2023-04-03T03:24:21;6.00;;;1.50;;
66523;SDS011;53350;52.210;5.160;2023-04-03T03:26:48;8.82;;;1.65;;
66523;SDS011;53350;52.210;5.160;2023-04-03T03:29:14;8.35;;;1.50;;
66523;SDS011;53350;52.210;5.160;2023-04-03T03:31:42;4.93;;;1.25;;
66523;SDS011;53350;52.210;5.160;2023-04-03T03:34:08;6.32;;;1.40;;
66523;SDS011;53350;52.210;5.160;2023-04-03T03:36:35;6.13;;;1.65;;
66523;SDS011;53350;52.210;5.160;2023-04-03T03:39:01;9.05;;;1.60;;
66523;SDS011;53350;52.210;5.160;2023-04-03T03:41:28;7.60;;;1.40;;
66523;SDS011;53350;52.210;5.160;2023-04-03T03:43:54;5.85;;;1.75;;
66523;SDS011;53350;52.210;5.160;2023-04-03T03:46:21;8.50;;;1.73;;
66523;SDS011;53350;52.210;5.160;2023-04-03T03:48:49;7.70;;;1.63;;
66523;SDS011;53350;52.210;5.160;2023-04-03T03:51:15;8.35;;;1.77;;
66523;SDS011;53350;52.210;5.160;2023-04-03T03:53:42;5.68;;;1.67;;
66523;SDS011;53350;52.210;5.160;2023-04-03T03:56:08;8.38;;;1.60;;
66523;SDS011;53350;52.210;5.160;2023-04-03T03:58:35;5.30;;;1.70;;
66523;SDS011;53350;52.210;5.160;2023-04-03T04:01:02;5.35;;;1.90;;
66523;SDS011;53350;52.210;5.160;2023-04-03T04:03:30;6.78;;;1.55;;
66523;SDS011;53350;52.210;5.160;2023-04-03T04:05:58;9.35;;;2.08;;
66523;SDS011;53350;52.210;5.160;2023-04-03T04:08:25;6.82;;;1.80;;
66523;SDS011;53350;52.210;5.160;2023-04-03T04:10:51;5.55;;;1.52;;
66523;SDS011;53350;52.210;5.160;2023-04-03T04:13:17;7.10;;;2.10;;
66523;SDS011;53350;52.210;5.160;2023-04-03T04:15:44;9.20;;;1.98;;
66523;SDS011;53350;52.210;5.160;2023-04-03T04:18:11;9.10;;;2.00;;
66523;SDS011;53350;52.210;5.160;2023-04-03T04:20:37;8.60;;;1.88;;
66523;SDS011;53350;52.210;5.160;2023-04-03T04:23:05;6.55;;;2.17;;
66523;SDS011;53350;52.210;5.160;2023-04-03T04:25:32;8.27;;;1.75;;
66523;SDS011;53350;52.210;5.160;2023-04-03T04:27:58;11.13;;;1.90;;
66523;SDS011;53350;52.210;5.160;2023-04-03T04:30:25;7.63;;;1.45;;
66523;SDS011;53350;52.210;5.160;2023-04-03T04:32:52;6.97;;;1.65;;
66523;SDS011;53350;52.210;5.160;2023-04-03T04:35:18;7.03;;;2.10;;
66523;SDS011;53350;52.210;5.160;2023-04-03T04:37:45;3.92;;;1.55;;
66523;SDS011;53350;52.210;5.160;2023-04-03T04:40:13;10.70;;;2.35;;
66523;SDS011;53350;52.210;5.160;2023-04-03T04:42:39;9.88;;;2.05;;
66523;SDS011;53350;52.210;5.160;2023-04-03T04:45:06;5.15;;;1.85;;
66523;SDS011;53350;52.210;5.160;2023-04-03T04:47:33;11.90;;;2.47;;
66523;SDS011;53350;52.210;5.160;2023-04-03T04:49:59;7.55;;;2.10;;
66523;SDS011;53350;52.210;5.160;2023-04-03T04:52:26;8.43;;;1.95;;
66523;SDS011;53350;52.210;5.160;2023-04-03T04:54:52;7.05;;;1.55;;
66523;SDS011;53350;52.210;5.160;2023-04-03T04:57:20;6.97;;;1.95;;
66523;SDS011;53350;52.210;5.160;2023-04-03T04:59:47;5.13;;;2.03;;
66523;SDS011;53350;52.210;5.160;2023-04-03T05:02:13;7.90;;;1.92;;
66523;SDS011;53350;52.210;5.160;2023-04-03T05:04:40;9.73;;;1.80;;
66523;SDS011;53350;52.210;5.160;2023-04-03T05:07:06;9.43;;;1.95;;
66523;SDS011;53350;52.210;5.160;2023-04-03T05:09:33;9.48;;;1.73;;
66523;SDS011;53350;52.210;5.160;2023-04-03T05:11:59;7.95;;;2.22;;
66523;SDS011;53350;52.210;5.160;2023-04-03T05:14:28;6.20;;;1.77;;
66523;SDS011;53350;52.210;5.160;2023-04-03T05:16:55;7.38;;;1.75;;
66523;SDS011;53350;52.210;5.160;2023-04-03T05:19:22;7.25;;;1.67;;
66523;SDS011;53350;52.210;5.160;2023-04-03T05:21:49;7.50;;;2.00;;
66523;SDS011;53350;52.210;5.160;2023-04-03T05:24:15;7.95;;;2.38;;
66523;SDS011;53350;52.210;5.160;2023-04-03T05:26:42;6.22;;;1.80;;
66523;SDS011;53350;52.210;5.160;2023-04-03T05:29:09;6.65;;;1.90;;
66523;SDS011;53350;52.210;5.160;2023-04-03T05:31:37;8.63;;;2.60;;
66523;SDS011;53350;52.210;5.160;2023-04-03T05:34:04;10.30;;;2.60;;
66523;SDS011;53350;52.210;5.160;2023-04-03T05:36:30;11.50;;;3.08;;
66523;SDS011;53350;52.210;5.160;2023-04-03T05:38:57;7.45;;;2.20;;
66523;SDS011;53350;52.210;5.160;2023-04-03T05:41:23;9.52;;;2.10;;
66523;SDS011;53350;52.210;5.160;2023-04-03T05:43:50;11.55;;;2.50;;
66523;SDS011;53350;52.210;5.160;2023-04-03T05:46:18;8.80;;;2.47;;
66523;SDS011;53350;52.210;5.160;2023-04-03T05:48:46;6.03;;;1.60;;
66523;SDS011;53350;52.210;5.160;2023-04-03T05:51:14;7.85;;;2.55;;
66523;SDS011;53350;52.210;5.160;2023-04-03T05:56:09;11.23;;;2.40;;
66523;SDS011;53350;52.210;5.160;2023-04-03T05:58:35;8.80;;;2.20;;
66523;SDS011;53350;52.210;5.160;2023-04-03T06:01:02;8.07;;;2.63;;
66523;SDS011;53350;52.210;5.160;2023-04-03T06:03:30;10.70;;;2.55;;
66523;SDS011;53350;52.210;5.160;2023-04-03T06:05:58;11.57;;;2.50;;
66523;SDS011;53350;52.210;5.160;2023-04-03T06:08:24;8.90;;;2.38;;
66523;SDS011;53350;52.210;5.160;2023-04-03T06:10:51;8.85;;;1.95;;
66523;SDS011;53350;52.210;5.160;2023-04-03T06:13:17;8.45;;;2.28;;
66523;SDS011;53350;52.210;5.160;2023-04-03T06:15:44;20.10;;;2.97;;
66523;SDS011;53350;52.210;5.160;2023-04-03T06:18:11;9.95;;;2.20;;
66523;SDS011;53350;52.210;5.160;2023-04-03T06:20:38;7.30;;;1.95;;
66523;SDS011;53350;52.210;5.160;2023-04-03T06:23:06;11.02;;;2.42;;
66523;SDS011;53350;52.210;5.160;2023-04-03T06:25:32;11.10;;;2.55;;
66523;SDS011;53350;52.210;5.160;2023-04-03T06:27:59;6.57;;;2.20;;
66523;SDS011;53350;52.210;5.160;2023-04-03T06:30:25;10.30;;;2.63;;
66523;SDS011;53350;52.210;5.160;2023-04-03T06:32:52;8.25;;;2.13;;
66523;SDS011;53350;52.210;5.160;2023-04-03T06:35:18;12.20;;;3.00;;
66523;SDS011;53350;52.210;5.160;2023-04-03T06:37:45;6.47;;;2.13;;
66523;SDS011;53350;52.210;5.160;2023-04-03T06:40:15;13.23;;;2.30;;
66523;SDS011;53350;52.210;5.160;2023-04-03T06:42:46;8.70;;;2.50;;
66523;SDS011;53350;52.210;5.160;2023-04-03T06:45:13;10.90;;;2.03;;
66523;SDS011;53350;52.210;5.160;2023-04-03T06:47:40;6.40;;;1.60;;
66523;SDS011;53350;52.210;5.160;2023-04-03T06:50:07;4.28;;;1.00;;
66523;SDS011;53350;52.210;5.160;2023-04-03T06:52:36;6.90;;;1.90;;
66523;SDS011;53350;52.210;5.160;2023-04-03T06:55:04;14.68;;;2.05;;
66523;SDS011;53350;52.210;5.160;2023-04-03T06:57:33;9.45;;;2.35;;
66523;SDS011;53350;52.210;5.160;2023-04-03T06:59:59;8.38;;;2.35;;
66523;SDS011;53350;52.210;5.160;2023-04-03T07:02:26;10.95;;;1.73;;
66523;SDS011;53350;52.210;5.160;2023-04-03T07:04:52;8.68;;;2.17;;
66523;SDS011;53350;52.210;5.160;2023-04-03T07:07:18;7.93;;;1.88;;
66523;SDS011;53350;52.210;5.160;2023-04-03T07:09:45;5.88;;;1.38;;
66523;SDS011;53350;52.210;5.160;2023-04-03T07:12:13;14.30;;;2.70;;
66523;SDS011;53350;52.210;5.160;2023-04-03T07:14:41;6.20;;;1.80;;
66523;SDS011;53350;52.210;5.160;2023-04-03T07:17:07;7.80;;;2.00;;
66523;SDS011;53350;52.210;5.160;2023-04-03T07:19:34;6.38;;;1.70;;
66523;SDS011;53350;52.210;5.160;2023-04-03T07:22:01;4.85;;;1.38;;
66523;SDS011;53350;52.210;5.160;2023-04-03T07:24:28;4.57;;;1.63;;
66523;SDS011;53350;52.210;5.160;2023-04-03T07:26:55;6.68;;;1.90;;
66523;SDS011;53350;52.210;5.160;2023-04-03T07:29:21;8.23;;;1.90;;
66523;SDS011;53350;52.210;5.160;2023-04-03T07:31:49;4.70;;;1.30;;
66523;SDS011;53350;52.210;5.160;2023-04-03T07:34:15;8.00;;;2.10;;
66523;SDS011;53350;52.210;5.160;2023-04-03T07:36:42;8.88;;;2.35;;
66523;SDS011;53350;52.210;5.160;2023-04-03T07:39:08;6.53;;;1.50;;
66523;SDS011;53350;52.210;5.160;2023-04-03T07:41:36;16.02;;;3.20;;
66523;SDS011;53350;52.210;5.160;2023-04-03T07:44:03;5.80;;;1.65;;
66523;SDS011;53350;52.210;5.160;2023-04-03T07:46:30;8.50;;;2.15;;
66523;SDS011;53350;52.210;5.160;2023-04-03T07:48:58;10.43;;;2.60;;
66523;SDS011;53350;52.210;5.160;2023-04-03T07:51:24;8.45;;;2.20;;
66523;SDS011;53350;52.210;5.160;2023-04-03T07:53:51;12.20;;;2.33;;
66523;SDS011;53350;52.210;5.160;2023-04-03T07:56:18;10.40;;;2.72;;
66523;SDS011;53350;52.210;5.160;2023-04-03T07:58:45;7.03;;;2.42;;
66523;SDS011;53350;52.210;5.160;2023-04-03T08:01:11;7.97;;;2.35;;
66523;SDS011;53350;52.210;5.160;2023-04-03T08:03:38;10.18;;;1.90;;
66523;SDS011;53350;52.210;5.160;2023-04-03T08:06:07;5.97;;;1.90;;
66523;SDS011;53350;52.210;5.160;2023-04-03T08:08:34;9.50;;;1.98;;
66523;SDS011;53350;52.210;5.160;2023-04-03T08:11:01;6.38;;;1.38;;
66523;SDS011;53350;52.210;5.160;2023-04-03T08:13:30;10.48;;;2.15;;
66523;SDS011;53350;52.210;5.160;2023-04-03T08:15:56;6.18;;;1.73;;
66523;SDS011;53350;52.210;5.160;2023-04-03T08:18:24;7.38;;;1.73;;
66523;SDS011;53350;52.210;5.160;2023-04-03T08:20:51;4.80;;;1.70;;
66523;SDS011;53350;52.210;5.160;2023-04-03T08:23:19;6.50;;;1.98;;
66523;SDS011;53350;52.210;5.160;2023-04-03T08:25:46;9.23;;;2.70;;
66523;SDS011;53350;52.210;5.160;2023-04-03T08:28:12;6.85;;;1.80;;
66523;SDS011;53350;52.210;5.160;2023-04-03T08:30:39;6.28;;;1.88;;
66523;SDS011;53350;52.210;5.160;2023-04-03T08:33:07;7.18;;;1.70;;
66523;SDS011;53350;52.210;5.160;2023-04-03T08:35:37;6.50;;;1.20;;
66523;SDS011;53350;52.210;5.160;2023-04-03T08:38:04;7.40;;;1.80;;
66523;SDS011;53350;52.210;5.160;2023-04-03T08:40:32;7.00;;;1.58;;
66523;SDS011;53350;52.210;5.160;2023-04-03T08:43:02;6.10;;;1.65;;
66523;SDS011;53350;52.210;5.160;2023-04-03T08:45:42;3.80;;;1.02;;
66523;SDS011;53350;52.210;5.160;2023-04-03T08:48:12;5.07;;;1.40;;
66523;SDS011;53350;52.210;5.160;2023-04-03T08:50:42;6.68;;;1.45;;
66523;SDS011;53350;52.210;5.160;2023-04-03T08:53:12;6.65;;;1.27;;
66523;SDS011;53350;52.210;5.160;2023-04-03T08:55:44;8.35;;;1.70;;
66523;SDS011;53350;52.210;5.160;2023-04-03T08:58:12;3.25;;;1.25;;
66523;SDS011;53350;52.210;5.160;2023-04-03T09:00:43;10.05;;;2.10;;
66523;SDS011;53350;52.210;5.160;2023-04-03T09:03:12;11.35;;;1.13;;
66523;SDS011;53350;52.210;5.160;2023-04-03T09:05:41;6.45;;;1.40;;
66523;SDS011;53350;52.210;5.160;2023-04-03T09:08:13;8.38;;;1.20;;
66523;SDS011;53350;52.210;5.160;2023-04-03T09:10:48;4.03;;;0.93;;
66523;SDS011;53350;52.210;5.160;2023-04-03T09:13:21;3.38;;;1.17;;
66523;SDS011;53350;52.210;5.160;2023-04-03T09:15:52;4.25;;;0.82;;
66523;SDS011;53350;52.210;5.160;2023-04-03T09:18:20;0.90;;;0.60;;
66523;SDS011;53350;52.210;5.160;2023-04-03T09:20:54;3.42;;;0.90;;
66523;SDS011;53350;52.210;5.160;2023-04-03T09:23:28;5.95;;;1.02;;
66523;SDS011;53350;52.210;5.160;2023-04-03T09:26:02;4.43;;;0.98;;
66523;SDS011;53350;52.210;5.160;2023-04-03T09:28:32;6.43;;;0.82;;
66523;SDS011;53350;52.210;5.160;2023-04-03T09:31:01;2.42;;;0.77;;
66523;SDS011;53350;52.210;5.160;2023-04-03T09:33:32;2.42;;;0.60;;
66523;SDS011;53350;52.210;5.160;2023-04-03T09:36:00;2.88;;;0.70;;
66523;SDS011;53350;52.210;5.160;2023-04-03T09:38:26;2.60;;;0.70;;
66523;SDS011;53350;52.210;5.160;2023-04-03T09:41:03;2.95;;;0.77;;
66523;SDS011;53350;52.210;5.160;2023-04-03T09:43:32;3.65;;;0.70;;
66523;SDS011;53350;52.210;5.160;2023-04-03T09:46:17;6.45;;;1.10;;
66523;SDS011;53350;52.210;5.160;2023-04-03T09:48:56;1.33;;;0.55;;
66523;SDS011;53350;52.210;5.160;2023-04-03T09:51:24;1.90;;;0.80;;
66523;SDS011;53350;52.210;5.160;2023-04-03T09:53:53;2.90;;;1.00;;
66523;SDS011;53350;52.210;5.160;2023-04-03T09:56:23;2.30;;;0.65;;
66523;SDS011;53350;52.210;5.160;2023-04-03T09:58:52;4.72;;;0.70;;
66523;SDS011;53350;52.210;5.160;2023-04-03T10:01:34;4.57;;;0.88;;
66523;SDS011;53350;52.210;5.160;2023-04-03T10:08:58;1.13;;;0.50;;
66523;SDS011;53350;52.210;5.160;2023-04-03T10:11:30;7.55;;;0.52;;
66523;SDS011;53350;52.210;5.160;2023-04-03T10:13:58;0.70;;;0.47;;
66523;SDS011;53350;52.210;5.160;2023-04-03T10:16:27;2.00;;;0.50;;
66523;SDS011;53350;52.210;5.160;2023-04-03T10:19:03;1.65;;;0.68;;
66523;SDS011;53350;52.210;5.160;2023-04-03T10:21:40;2.00;;;0.70;;
66523;SDS011;53350;52.210;5.160;2023-04-03T10:24:11;2.60;;;0.80;;
66523;SDS011;53350;52.210;5.160;2023-04-03T10:26:49;1.58;;;0.43;;
66523;SDS011;53350;52.210;5.160;2023-04-03T10:29:36;0.95;;;0.40;;
66523;SDS011;53350;52.210;5.160;2023-04-03T10:32:19;3.63;;;0.82;;
66523;SDS011;53350;52.210;5.160;2023-04-03T10:34:57;1.17;;;0.52;;
66523;SDS011;53350;52.210;5.160;2023-04-03T10:37:29;3.38;;;0.50;;
66523;SDS011;53350;52.210;5.160;2023-04-03T10:40:02;2.80;;;0.70;;
66523;SDS011;53350;52.210;5.160;2023-04-03T10:42:41;3.85;;;0.50;;
66523;SDS011;53350;52.210;5.160;2023-04-03T10:45:19;1.65;;;0.70;;
66523;SDS011;53350;52.210;5.160;2023-04-03T10:47:52;2.60;;;0.60;;
66523;SDS011;53350;52.210;5.160;2023-04-03T10:50:30;0.93;;;0.40;;
66523;SDS011;53350;52.210;5.160;2023-04-03T10:53:05;1.15;;;0.60;;
66523;SDS011;53350;52.210;5.160;2023-04-03T10:55:40;1.10;;;0.50;;
66523;SDS011;53350;52.210;5.160;2023-04-03T10:58:17;2.75;;;0.70;;
66523;SDS011;53350;52.210;5.160;2023-04-03T11:00:50;2.53;;;0.60;;
66523;SDS011;53350;52.210;5.160;2023-04-03T11:03:23;3.95;;;1.33;;
66523;SDS011;53350;52.210;5.160;2023-04-03T11:05:56;1.83;;;0.70;;
66523;SDS011;53350;52.210;5.160;2023-04-03T11:08:28;2.75;;;0.70;;
66523;SDS011;53350;52.210;5.160;2023-04-03T11:11:01;1.38;;;0.50;;
66523;SDS011;53350;52.210;5.160;2023-04-03T11:13:34;1.55;;;0.68;;
66523;SDS011;53350;52.210;5.160;2023-04-03T11:16:06;2.22;;;0.75;;
66523;SDS011;53350;52.210;5.160;2023-04-03T11:18:35;3.47;;;0.50;;
66523;SDS011;53350;52.210;5.160;2023-04-03T11:21:07;2.30;;;0.60;;
66523;SDS011;53350;52.210;5.160;2023-04-03T11:23:39;2.15;;;0.50;;
66523;SDS011;53350;52.210;5.160;2023-04-03T11:26:07;1.42;;;0.50;;
66523;SDS011;53350;52.210;5.160;2023-04-03T11:28:38;2.67;;;0.57;;
66523;SDS011;53350;52.210;5.160;2023-04-03T11:31:09;2.50;;;0.70;;
66523;SDS011;53350;52.210;5.160;2023-04-03T11:33:48;3.72;;;0.75;;
66523;SDS011;53350;52.210;5.160;2023-04-03T11:36:22;1.58;;;0.50;;
66523;SDS011;53350;52.210;5.160;2023-04-03T11:38:51;1.63;;;0.50;;
66523;SDS011;53350;52.210;5.160;2023-04-03T11:41:25;2.20;;;0.88;;
66523;SDS011;53350;52.210;5.160;2023-04-03T11:43:57;1.83;;;0.50;;
66523;SDS011;53350;52.210;5.160;2023-04-03T11:58:25;1.48;;;0.50;;
66523;SDS011;53350;52.210;5.160;2023-04-03T12:00:55;5.05;;;0.77;;
66523;SDS011;53350;52.210;5.160;2023-04-03T12:03:30;3.10;;;0.77;;
66523;SDS011;53350;52.210;5.160;2023-04-03T12:09:21;3.55;;;0.65;;
66523;SDS011;53350;52.210;5.160;2023-04-03T12:11:50;1.65;;;0.63;;
66523;SDS011;53350;52.210;5.160;2023-04-03T12:14:17;1.05;;;0.50;;
66523;SDS011;53350;52.210;5.160;2023-04-03T12:16:46;3.15;;;0.70;;
66523;SDS011;53350;52.210;5.160;2023-04-03T12:22:07;4.05;;;0.98;;
66523;SDS011;53350;52.210;5.160;2023-04-03T12:24:36;2.20;;;0.50;;
66523;SDS011;53350;52.210;5.160;2023-04-03T12:27:09;1.92;;;0.80;;
66523;SDS011;53350;52.210;5.160;2023-04-03T12:29:58;3.13;;;0.80;;
66523;SDS011;53350;52.210;5.160;2023-04-03T12:32:36;3.60;;;0.70;;
66523;SDS011;53350;52.210;5.160;2023-04-03T12:35:16;2.00;;;0.70;;
66523;SDS011;53350;52.210;5.160;2023-04-03T12:37:54;2.25;;;0.77;;
66523;SDS011;53350;52.210;5.160;2023-04-03T12:40:39;2.05;;;0.85;;
66523;SDS011;53350;52.210;5.160;2023-04-03T12:43:17;3.33;;;0.77;;
66523;SDS011;53350;52.210;5.160;2023-04-03T12:45:56;3.20;;;1.02;;
66523;SDS011;53350;52.210;5.160;2023-04-03T12:48:29;3.38;;;0.80;;
66523;SDS011;53350;52.210;5.160;2023-04-03T12:50:57;5.50;;;1.05;;
66523;SDS011;53350;52.210;5.160;2023-04-03T12:53:26;3.67;;;0.90;;
66523;SDS011;53350;52.210;5.160;2023-04-03T12:55:55;1.55;;;0.60;;
66523;SDS011;53350;52.210;5.160;2023-04-03T12:58:22;2.78;;;0.85;;
66523;SDS011;53350;52.210;5.160;2023-04-03T13:01:00;2.88;;;1.00;;
66523;SDS011;53350;52.210;5.160;2023-04-03T13:03:29;2.38;;;0.90;;
66523;SDS011;53350;52.210;5.160;2023-04-03T13:05:57;3.00;;;0.80;;
66523;SDS011;53350;52.210;5.160;2023-04-03T13:08:25;4.93;;;1.00;;
66523;SDS011;53350;52.210;5.160;2023-04-03T13:10:54;3.08;;;1.13;;
66523;SDS011;53350;52.210;5.160;2023-04-03T13:13:23;4.32;;;1.00;;
66523;SDS011;53350;52.210;5.160;2023-04-03T13:15:51;5.80;;;1.58;;
66523;SDS011;53350;52.210;5.160;2023-04-03T13:18:27;2.95;;;1.00;;
66523;SDS011;53350;52.210;5.160;2023-04-03T13:20:58;2.38;;;0.70;;
66523;SDS011;53350;52.210;5.160;2023-04-03T13:23:29;3.75;;;0.98;;
66523;SDS011;53350;52.210;5.160;2023-04-03T13:25:56;3.05;;;0.80;;
66523;SDS011;53350;52.210;5.160;2023-04-03T13:28:27;2.92;;;0.80;;
66523;SDS011;53350;52.210;5.160;2023-04-03T13:30:55;3.08;;;0.80;;
66523;SDS011;53350;52.210;5.160;2023-04-03T13:33:27;4.60;;;1.00;;
66523;SDS011;53350;52.210;5.160;2023-04-03T13:35:58;2.95;;;0.90;;
66523;SDS011;53350;52.210;5.160;2023-04-03T13:38:29;2.58;;;0.88;;
66523;SDS011;53350;52.210;5.160;2023-04-03T13:40:59;2.55;;;0.77;;
66523;SDS011;53350;52.210;5.160;2023-04-03T13:43:28;2.03;;;0.70;;
66523;SDS011;53350;52.210;5.160;2023-04-03T13:46:04;3.15;;;0.93;;
66523;SDS011;53350;52.210;5.160;2023-04-03T13:48:49;2.67;;;0.80;;
66523;SDS011;53350;52.210;5.160;2023-04-03T13:51:18;3.25;;;0.90;;
66523;SDS011;53350;52.210;5.160;2023-04-03T13:53:48;4.85;;;0.95;;
66523;SDS011;53350;52.210;5.160;2023-04-03T13:56:25;2.38;;;0.93;;
66523;SDS011;53350;52.210;5.160;2023-04-03T13:58:57;3.13;;;0.80;;
66523;SDS011;53350;52.210;5.160;2023-04-03T14:01:33;5.03;;;1.10;;
66523;SDS011;53350;52.210;5.160;2023-04-03T14:04:13;6.05;;;1.15;;
66523;SDS011;53350;52.210;5.160;2023-04-03T14:06:42;3.72;;;1.08;;
66523;SDS011;53350;52.210;5.160;2023-04-03T14:09:08;4.45;;;1.00;;
66523;SDS011;53350;52.210;5.160;2023-04-03T14:11:35;4.25;;;1.00;;
66523;SDS011;53350;52.210;5.160;2023-04-03T14:14:02;3.80;;;1.23;;
66523;SDS011;53350;52.210;5.160;2023-04-03T14:16:37;3.60;;;0.95;;
66523;SDS011;53350;52.210;5.160;2023-04-03T14:19:06;3.22;;;1.15;;
66523;SDS011;53350;52.210;5.160;2023-04-03T14:21:34;2.25;;;0.90;;
66523;SDS011;53350;52.210;5.160;2023-04-03T14:24:00;2.20;;;0.80;;
66523;SDS011;53350;52.210;5.160;2023-04-03T14:26:28;3.35;;;1.02;;
66523;SDS011;53350;52.210;5.160;2023-04-03T14:28:55;3.53;;;0.85;;
66523;SDS011;53350;52.210;5.160;2023-04-03T14:31:22;4.72;;;1.20;;
66523;SDS011;53350;52.210;5.160;2023-04-03T14:33:48;5.35;;;1.10;;
66523;SDS011;53350;52.210;5.160;2023-04-03T14:36:17;6.30;;;1.48;;
66523;SDS011;53350;52.210;5.160;2023-04-03T14:38:47;4.43;;;1.20;;
66523;SDS011;53350;52.210;5.160;2023-04-03T14:41:15;4.15;;;1.13;;
66523;SDS011;53350;52.210;5.160;2023-04-03T14:43:43;4.43;;;1.08;;
66523;SDS011;53350;52.210;5.160;2023-04-03T14:46:12;1.85;;;0.77;;
66523;SDS011;53350;52.210;5.160;2023-04-03T14:48:40;4.20;;;1.30;;
66523;SDS011;53350;52.210;5.160;2023-04-03T14:51:06;3.80;;;1.20;;
66523;SDS011;53350;52.210;5.160;2023-04-03T14:53:33;4.63;;;1.10;;
66523;SDS011;53350;52.210;5.160;2023-04-03T14:56:01;3.53;;;1.73;;
66523;SDS011;53350;52.210;5.160;2023-04-03T14:58:27;3.45;;;0.93;;
66523;SDS011;53350;52.210;5.160;2023-04-03T15:00:57;5.18;;;1.20;;
66523;SDS011;53350;52.210;5.160;2023-04-03T15:03:23;4.00;;;1.20;;
66523;SDS011;53350;52.210;5.160;2023-04-03T15:05:49;4.72;;;1.35;;
66523;SDS011;53350;52.210;5.160;2023-04-03T15:08:17;5.18;;;1.15;;
66523;SDS011;53350;52.210;5.160;2023-04-03T15:10:45;4.00;;;1.20;;
66523;SDS011;53350;52.210;5.160;2023-04-03T15:13:13;2.50;;;0.90;;
66523;SDS011;53350;52.210;5.160;2023-04-03T15:15:40;2.78;;;1.10;;
66523;SDS011;53350;52.210;5.160;2023-04-03T15:18:09;2.40;;;0.75;;
66523;SDS011;53350;52.210;5.160;2023-04-03T15:20:40;6.10;;;1.42;;
66523;SDS011;53350;52.210;5.160;2023-04-03T15:23:08;1.70;;;0.80;;
66523;SDS011;53350;52.210;5.160;2023-04-03T15:25:36;4.50;;;1.25;;
66523;SDS011;53350;52.210;5.160;2023-04-03T15:28:02;5.10;;;0.73;;